Lysite, Wyoming
Current Conditions -  °F | °C
As of 11:15 AM on Tuesday 21 Oct 2014 (Local Time) from KTBX Reporting Station
Scattered Clouds Scattered Clouds  
Wind Chill: 52°   Ceiling: Unl
Heat Index: 52°   Visibility: 10mi
Dew Point: 34°   Wind: 14mph
Humidity: 50%   Direction: 130°SE
Pressure: 30.04"   Gusts: NA
Location:  43.27°N, 107.69°W
Report Text: KTBX 211715Z AUTO 13012KT 10SM SCT110 11/01 A3004 RMK AO2
Loading
Personal Weather Stations






























Interactive Weather Map
Tropical Storm Tracking
New forecast layout! Learn more

10-Day Weather Forecast

Advertisements
Track Severe Weather on mobile